sensor_id;sensor_type;location;lat;lon;timestamp;temperature;humidity
33139;DHT22;19501;50.948;5.316;2023-08-24T00:01:43;21.00;99.90
33139;DHT22;19501;50.948;5.316;2023-08-24T00:04:09;21.00;99.90
33139;DHT22;19501;50.948;5.316;2023-08-24T00:06:35;21.00;99.90
33139;DHT22;19501;50.948;5.316;2023-08-24T00:09:02;21.10;99.90
33139;DHT22;19501;50.948;5.316;2023-08-24T00:11:30;21.10;99.90
33139;DHT22;19501;50.948;5.316;2023-08-24T00:13:56;21.20;99.90
33139;DHT22;19501;50.948;5.316;2023-08-24T00:16:21;21.30;99.90
33139;DHT22;19501;50.948;5.316;2023-08-24T00:18:47;21.40;99.90
33139;DHT22;19501;50.948;5.316;2023-08-24T00:21:13;21.40;99.90
33139;DHT22;19501;50.948;5.316;2023-08-24T00:23:42;21.40;99.90
33139;DHT22;19501;50.948;5.316;2023-08-24T00:26:09;21.40;99.90
33139;DHT22;19501;50.948;5.316;2023-08-24T00:28:34;21.40;99.90
33139;DHT22;19501;50.948;5.316;2023-08-24T00:31:00;21.40;99.90
33139;DHT22;19501;50.948;5.316;2023-08-24T00:33:26;21.40;99.90
33139;DHT22;19501;50.948;5.316;2023-08-24T00:35:52;21.40;99.90
33139;DHT22;19501;50.948;5.316;2023-08-24T00:38:17;21.40;99.90
33139;DHT22;19501;50.948;5.316;2023-08-24T00:40:43;21.40;99.90
33139;DHT22;19501;50.948;5.316;2023-08-24T00:43:09;21.40;99.90
33139;DHT22;19501;50.948;5.316;2023-08-24T00:45:35;21.20;99.90
33139;DHT22;19501;50.948;5.316;2023-08-24T00:48:01;21.10;99.90
33139;DHT22;19501;50.948;5.316;2023-08-24T00:50:27;21.10;99.90
33139;DHT22;19501;50.948;5.316;2023-08-24T00:52:53;21.00;99.90
33139;DHT22;19501;50.948;5.316;2023-08-24T00:55:20;21.10;99.90
33139;DHT22;19501;50.948;5.316;2023-08-24T00:57:46;21.00;99.90
33139;DHT22;19501;50.948;5.316;2023-08-24T01:00:13;20.90;99.90
33139;DHT22;19501;50.948;5.316;2023-08-24T01:02:39;21.00;99.90
33139;DHT22;19501;50.948;5.316;2023-08-24T01:05:06;21.00;99.90
33139;DHT22;19501;50.948;5.316;2023-08-24T01:07:37;20.90;99.90
33139;DHT22;19501;50.948;5.316;2023-08-24T01:10:06;20.80;99.90
33139;DHT22;19501;50.948;5.316;2023-08-24T01:17:57;20.80;99.90
33139;DHT22;19501;50.948;5.316;2023-08-24T01:20:26;20.80;99.90
33139;DHT22;19501;50.948;5.316;2023-08-24T01:25:53;20.70;99.90
33139;DHT22;19501;50.948;5.316;2023-08-24T01:28:20;20.60;99.90
33139;DHT22;19501;50.948;5.316;2023-08-24T01:30:47;20.70;99.90
33139;DHT22;19501;50.948;5.316;2023-08-24T01:33:13;20.80;99.90
33139;DHT22;19501;50.948;5.316;2023-08-24T01:35:40;20.90;99.90
33139;DHT22;19501;50.948;5.316;2023-08-24T01:38:06;20.90;99.90
33139;DHT22;19501;50.948;5.316;2023-08-24T01:43:04;20.90;99.90
33139;DHT22;19501;50.948;5.316;2023-08-24T01:45:32;20.70;99.90
33139;DHT22;19501;50.948;5.316;2023-08-24T01:48:03;20.80;99.90
33139;DHT22;19501;50.948;5.316;2023-08-24T01:50:29;20.90;99.90
33139;DHT22;19501;50.948;5.316;2023-08-24T01:52:56;21.00;99.90
33139;DHT22;19501;50.948;5.316;2023-08-24T01:55:22;21.00;99.90
33139;DHT22;19501;50.948;5.316;2023-08-24T01:57:48;21.00;99.90
33139;DHT22;19501;50.948;5.316;2023-08-24T02:00:14;21.00;99.90
33139;DHT22;19501;50.948;5.316;2023-08-24T02:02:42;21.00;99.90
33139;DHT22;19501;50.948;5.316;2023-08-24T02:05:08;21.00;99.90
33139;DHT22;19501;50.948;5.316;2023-08-24T02:07:33;21.10;99.90
33139;DHT22;19501;50.948;5.316;2023-08-24T02:09:59;21.20;99.90
33139;DHT22;19501;50.948;5.316;2023-08-24T02:12:25;21.20;99.90
33139;DHT22;19501;50.948;5.316;2023-08-24T02:14:50;21.10;99.90
33139;DHT22;19501;50.948;5.316;2023-08-24T02:17:16;21.20;99.90
33139;DHT22;19501;50.948;5.316;2023-08-24T02:19:44;21.20;99.90
33139;DHT22;19501;50.948;5.316;2023-08-24T02:22:10;21.10;99.90
33139;DHT22;19501;50.948;5.316;2023-08-24T02:24:35;21.20;99.90
33139;DHT22;19501;50.948;5.316;2023-08-24T02:27:01;21.30;99.90
33139;DHT22;19501;50.948;5.316;2023-08-24T02:29:26;21.20;99.90
33139;DHT22;19501;50.948;5.316;2023-08-24T02:31:53;21.10;99.90
33139;DHT22;19501;50.948;5.316;2023-08-24T02:34:19;21.10;99.90
33139;DHT22;19501;50.948;5.316;2023-08-24T02:36:44;21.20;99.90
33139;DHT22;19501;50.948;5.316;2023-08-24T02:39:10;21.10;99.90
33139;DHT22;19501;50.948;5.316;2023-08-24T02:41:36;20.80;99.90
33139;DHT22;19501;50.948;5.316;2023-08-24T02:44:02;20.80;99.90
33139;DHT22;19501;50.948;5.316;2023-08-24T02:46:28;20.90;99.90
33139;DHT22;19501;50.948;5.316;2023-08-24T02:48:55;21.00;99.90
33139;DHT22;19501;50.948;5.316;2023-08-24T02:51:23;21.00;99.90
33139;DHT22;19501;50.948;5.316;2023-08-24T02:53:49;21.00;99.90
33139;DHT22;19501;50.948;5.316;2023-08-24T02:56:16;21.00;99.90
33139;DHT22;19501;50.948;5.316;2023-08-24T02:58:42;20.90;99.90
33139;DHT22;19501;50.948;5.316;2023-08-24T03:01:12;20.80;99.90
33139;DHT22;19501;50.948;5.316;2023-08-24T03:03:38;20.70;99.90
33139;DHT22;19501;50.948;5.316;2023-08-24T03:06:05;20.50;99.90
33139;DHT22;19501;50.948;5.316;2023-08-24T03:08:32;20.40;99.90
33139;DHT22;19501;50.948;5.316;2023-08-24T03:10:59;20.30;99.90
33139;DHT22;19501;50.948;5.316;2023-08-24T03:13:26;20.30;99.90
33139;DHT22;19501;50.948;5.316;2023-08-24T03:15:52;20.20;99.90
33139;DHT22;19501;50.948;5.316;2023-08-24T03:18:18;20.20;99.90
33139;DHT22;19501;50.948;5.316;2023-08-24T03:20:48;20.30;99.90
33139;DHT22;19501;50.948;5.316;2023-08-24T03:23:15;20.30;99.90
33139;DHT22;19501;50.948;5.316;2023-08-24T03:25:41;20.40;99.90
33139;DHT22;19501;50.948;5.316;2023-08-24T03:28:08;20.30;99.90
33139;DHT22;19501;50.948;5.316;2023-08-24T03:30:36;20.30;99.90
33139;DHT22;19501;50.948;5.316;2023-08-24T03:33:02;20.40;99.90
33139;DHT22;19501;50.948;5.316;2023-08-24T03:35:29;20.30;99.90
33139;DHT22;19501;50.948;5.316;2023-08-24T03:37:58;20.40;99.90
33139;DHT22;19501;50.948;5.316;2023-08-24T03:40:23;20.30;99.90
33139;DHT22;19501;50.948;5.316;2023-08-24T03:42:49;20.10;99.90
33139;DHT22;19501;50.948;5.316;2023-08-24T03:45:15;20.10;99.90
33139;DHT22;19501;50.948;5.316;2023-08-24T03:47:41;20.00;99.90
33139;DHT22;19501;50.948;5.316;2023-08-24T03:50:07;19.90;99.90
33139;DHT22;19501;50.948;5.316;2023-08-24T03:52:34;20.00;99.90
33139;DHT22;19501;50.948;5.316;2023-08-24T03:55:00;20.00;99.90
33139;DHT22;19501;50.948;5.316;2023-08-24T03:57:28;20.00;99.90
33139;DHT22;19501;50.948;5.316;2023-08-24T03:59:54;20.10;99.90
33139;DHT22;19501;50.948;5.316;2023-08-24T04:02:19;20.10;99.90
33139;DHT22;19501;50.948;5.316;2023-08-24T04:04:46;20.10;99.90
33139;DHT22;19501;50.948;5.316;2023-08-24T04:07:11;20.10;99.90
33139;DHT22;19501;50.948;5.316;2023-08-24T04:09:37;20.20;99.90
33139;DHT22;19501;50.948;5.316;2023-08-24T04:12:03;20.20;99.90
33139;DHT22;19501;50.948;5.316;2023-08-24T04:14:31;20.20;99.90
33139;DHT22;19501;50.948;5.316;2023-08-24T04:16:57;20.30;99.90
33139;DHT22;19501;50.948;5.316;2023-08-24T04:19:22;20.30;99.90
33139;DHT22;19501;50.948;5.316;2023-08-24T04:21:48;20.20;99.90
33139;DHT22;19501;50.948;5.316;2023-08-24T04:24:14;20.20;99.90
33139;DHT22;19501;50.948;5.316;2023-08-24T04:26:39;20.20;99.90
33139;DHT22;19501;50.948;5.316;2023-08-24T04:29:05;20.30;99.90
33139;DHT22;19501;50.948;5.316;2023-08-24T04:31:30;20.30;99.90
33139;DHT22;19501;50.948;5.316;2023-08-24T04:33:56;20.20;99.90
33139;DHT22;19501;50.948;5.316;2023-08-24T04:36:22;20.20;99.90
33139;DHT22;19501;50.948;5.316;2023-08-24T04:38:47;20.10;99.90
33139;DHT22;19501;50.948;5.316;2023-08-24T04:41:13;20.10;99.90
33139;DHT22;19501;50.948;5.316;2023-08-24T04:43:38;20.00;99.90
33139;DHT22;19501;50.948;5.316;2023-08-24T04:46:04;20.00;99.90
33139;DHT22;19501;50.948;5.316;2023-08-24T04:48:30;19.90;99.90
33139;DHT22;19501;50.948;5.316;2023-08-24T04:51:00;19.90;99.90
33139;DHT22;19501;50.948;5.316;2023-08-24T04:53:26;19.80;99.90
33139;DHT22;19501;50.948;5.316;2023-08-24T04:55:52;19.80;99.90
33139;DHT22;19501;50.948;5.316;2023-08-24T04:58:18;19.70;99.90
33139;DHT22;19501;50.948;5.316;2023-08-24T05:00:43;19.80;99.90
33139;DHT22;19501;50.948;5.316;2023-08-24T05:03:09;19.90;99.90
33139;DHT22;19501;50.948;5.316;2023-08-24T05:05:36;19.90;99.90
33139;DHT22;19501;50.948;5.316;2023-08-24T05:08:04;19.90;99.90
33139;DHT22;19501;50.948;5.316;2023-08-24T05:10:32;19.90;99.90
33139;DHT22;19501;50.948;5.316;2023-08-24T05:12:58;20.00;99.90
33139;DHT22;19501;50.948;5.316;2023-08-24T05:15:24;20.00;99.90
33139;DHT22;19501;50.948;5.316;2023-08-24T05:17:50;20.10;99.90
33139;DHT22;19501;50.948;5.316;2023-08-24T05:20:20;20.00;99.90
33139;DHT22;19501;50.948;5.316;2023-08-24T05:22:46;20.00;99.90
33139;DHT22;19501;50.948;5.316;2023-08-24T05:25:12;19.90;99.90
33139;DHT22;19501;50.948;5.316;2023-08-24T05:27:39;19.90;99.90
33139;DHT22;19501;50.948;5.316;2023-08-24T05:30:05;19.90;99.90
33139;DHT22;19501;50.948;5.316;2023-08-24T05:32:31;19.80;99.90
33139;DHT22;19501;50.948;5.316;2023-08-24T05:34:57;19.80;99.90
33139;DHT22;19501;50.948;5.316;2023-08-24T05:37:23;20.00;99.90
33139;DHT22;19501;50.948;5.316;2023-08-24T05:39:49;20.10;99.90
33139;DHT22;19501;50.948;5.316;2023-08-24T05:42:15;20.00;99.90
33139;DHT22;19501;50.948;5.316;2023-08-24T05:44:40;20.10;99.90
33139;DHT22;19501;50.948;5.316;2023-08-24T05:47:06;20.10;99.90
33139;DHT22;19501;50.948;5.316;2023-08-24T05:49:32;20.20;99.90
33139;DHT22;19501;50.948;5.316;2023-08-24T05:51:57;20.20;99.90
33139;DHT22;19501;50.948;5.316;2023-08-24T05:54:23;20.30;99.90
33139;DHT22;19501;50.948;5.316;2023-08-24T05:56:49;20.40;99.90
33139;DHT22;19501;50.948;5.316;2023-08-24T05:59:15;20.60;99.90
33139;DHT22;19501;50.948;5.316;2023-08-24T06:01:41;20.70;99.90
33139;DHT22;19501;50.948;5.316;2023-08-24T06:04:07;20.80;99.90
33139;DHT22;19501;50.948;5.316;2023-08-24T06:06:34;20.90;99.90
33139;DHT22;19501;50.948;5.316;2023-08-24T06:08:59;20.90;99.90
33139;DHT22;19501;50.948;5.316;2023-08-24T06:11:25;21.00;99.90
33139;DHT22;19501;50.948;5.316;2023-08-24T06:13:53;21.00;99.90
33139;DHT22;19501;50.948;5.316;2023-08-24T06:16:20;21.10;99.90
33139;DHT22;19501;50.948;5.316;2023-08-24T06:18:46;21.10;99.90
33139;DHT22;19501;50.948;5.316;2023-08-24T06:21:11;21.10;99.90
33139;DHT22;19501;50.948;5.316;2023-08-24T06:23:38;21.10;99.90
33139;DHT22;19501;50.948;5.316;2023-08-24T06:26:04;21.10;99.90
33139;DHT22;19501;50.948;5.316;2023-08-24T06:28:30;21.10;99.90
33139;DHT22;19501;50.948;5.316;2023-08-24T06:30:56;21.20;99.90
33139;DHT22;19501;50.948;5.316;2023-08-24T06:33:27;21.20;99.90
33139;DHT22;19501;50.948;5.316;2023-08-24T06:35:56;21.30;99.90
33139;DHT22;19501;50.948;5.316;2023-08-24T06:38:21;21.40;99.90
33139;DHT22;19501;50.948;5.316;2023-08-24T06:40:47;21.60;99.90
33139;DHT22;19501;50.948;5.316;2023-08-24T06:43:13;21.70;99.90
33139;DHT22;19501;50.948;5.316;2023-08-24T06:45:40;21.90;99.90
33139;DHT22;19501;50.948;5.316;2023-08-24T06:48:06;22.10;99.90
33139;DHT22;19501;50.948;5.316;2023-08-24T06:50:33;22.20;99.90
33139;DHT22;19501;50.948;5.316;2023-08-24T06:52:58;22.30;99.90
33139;DHT22;19501;50.948;5.316;2023-08-24T06:55:26;22.50;99.90
33139;DHT22;19501;50.948;5.316;2023-08-24T06:57:52;22.60;99.90
33139;DHT22;19501;50.948;5.316;2023-08-24T07:00:19;22.80;99.90
33139;DHT22;19501;50.948;5.316;2023-08-24T07:02:46;22.90;99.90
33139;DHT22;19501;50.948;5.316;2023-08-24T07:05:12;23.10;99.90
33139;DHT22;19501;50.948;5.316;2023-08-24T07:07:38;23.30;99.90
33139;DHT22;19501;50.948;5.316;2023-08-24T07:10:04;23.30;99.90
33139;DHT22;19501;50.948;5.316;2023-08-24T07:12:31;23.40;99.90
33139;DHT22;19501;50.948;5.316;2023-08-24T07:14:57;23.50;99.90
33139;DHT22;19501;50.948;5.316;2023-08-24T07:17:23;23.60;99.90
33139;DHT22;19501;50.948;5.316;2023-08-24T07:19:48;23.70;99.90
33139;DHT22;19501;50.948;5.316;2023-08-24T07:22:15;23.80;99.90
33139;DHT22;19501;50.948;5.316;2023-08-24T07:24:40;23.90;99.90
33139;DHT22;19501;50.948;5.316;2023-08-24T07:27:07;23.90;99.90
33139;DHT22;19501;50.948;5.316;2023-08-24T07:29:34;24.00;99.90
33139;DHT22;19501;50.948;5.316;2023-08-24T07:31:59;24.10;99.90
33139;DHT22;19501;50.948;5.316;2023-08-24T07:34:25;24.30;99.90
33139;DHT22;19501;50.948;5.316;2023-08-24T07:36:51;24.40;99.90
33139;DHT22;19501;50.948;5.316;2023-08-24T07:39:16;24.50;99.90
33139;DHT22;19501;50.948;5.316;2023-08-24T07:41:42;24.60;99.90
33139;DHT22;19501;50.948;5.316;2023-08-24T07:44:08;24.70;99.90
33139;DHT22;19501;50.948;5.316;2023-08-24T07:46:34;24.80;99.90
33139;DHT22;19501;50.948;5.316;2023-08-24T07:48:59;24.80;99.90
33139;DHT22;19501;50.948;5.316;2023-08-24T07:51:25;25.00;99.90
33139;DHT22;19501;50.948;5.316;2023-08-24T07:53:51;25.20;99.90
33139;DHT22;19501;50.948;5.316;2023-08-24T07:56:18;25.40;99.90
33139;DHT22;19501;50.948;5.316;2023-08-24T07:58:44;25.70;99.90
33139;DHT22;19501;50.948;5.316;2023-08-24T08:01:10;25.70;99.90
33139;DHT22;19501;50.948;5.316;2023-08-24T08:03:36;25.80;99.90
33139;DHT22;19501;50.948;5.316;2023-08-24T08:06:02;25.70;99.90
33139;DHT22;19501;50.948;5.316;2023-08-24T08:08:28;25.80;99.90
33139;DHT22;19501;50.948;5.316;2023-08-24T08:11:02;25.90;99.90
33139;DHT22;19501;50.948;5.316;2023-08-24T08:13:30;26.10;99.90
33139;DHT22;19501;50.948;5.316;2023-08-24T08:16:03;26.10;99.90
33139;DHT22;19501;50.948;5.316;2023-08-24T08:18:31;26.10;99.90
33139;DHT22;19501;50.948;5.316;2023-08-24T08:20:57;26.10;99.90
33139;DHT22;19501;50.948;5.316;2023-08-24T08:23:22;26.00;99.90
33139;DHT22;19501;50.948;5.316;2023-08-24T08:25:48;26.10;99.90
33139;DHT22;19501;50.948;5.316;2023-08-24T08:28:13;26.20;99.90
33139;DHT22;19501;50.948;5.316;2023-08-24T08:30:39;26.30;99.90
33139;DHT22;19501;50.948;5.316;2023-08-24T08:33:05;26.30;99.90
33139;DHT22;19501;50.948;5.316;2023-08-24T08:35:30;26.40;99.90
33139;DHT22;19501;50.948;5.316;2023-08-24T08:37:56;26.40;99.90
33139;DHT22;19501;50.948;5.316;2023-08-24T08:40:25;26.40;99.90
33139;DHT22;19501;50.948;5.316;2023-08-24T08:42:58;26.60;99.90
33139;DHT22;19501;50.948;5.316;2023-08-24T08:45:28;26.80;99.90
33139;DHT22;19501;50.948;5.316;2023-08-24T08:48:01;26.70;99.90
33139;DHT22;19501;50.948;5.316;2023-08-24T08:50:30;26.80;99.90
33139;DHT22;19501;50.948;5.316;2023-08-24T08:52:57;26.90;99.90
33139;DHT22;19501;50.948;5.316;2023-08-24T08:55:25;26.80;99.90
33139;DHT22;19501;50.948;5.316;2023-08-24T08:57:51;26.60;99.90
33139;DHT22;19501;50.948;5.316;2023-08-24T09:00:21;26.80;99.90
33139;DHT22;19501;50.948;5.316;2023-08-24T09:02:49;26.70;99.90
33139;DHT22;19501;50.948;5.316;2023-08-24T09:05:17;26.90;99.90
33139;DHT22;19501;50.948;5.316;2023-08-24T09:07:43;27.00;99.90
33139;DHT22;19501;50.948;5.316;2023-08-24T09:10:09;26.90;99.90
33139;DHT22;19501;50.948;5.316;2023-08-24T09:12:35;27.20;99.90
33139;DHT22;19501;50.948;5.316;2023-08-24T09:15:05;27.10;99.90
33139;DHT22;19501;50.948;5.316;2023-08-24T09:17:32;27.00;99.90
33139;DHT22;19501;50.948;5.316;2023-08-24T09:19:59;27.00;99.90
33139;DHT22;19501;50.948;5.316;2023-08-24T09:22:26;26.90;99.90
33139;DHT22;19501;50.948;5.316;2023-08-24T09:24:54;26.40;99.90
33139;DHT22;19501;50.948;5.316;2023-08-24T09:27:22;26.30;99.90
33139;DHT22;19501;50.948;5.316;2023-08-24T09:29:51;26.40;99.90
33139;DHT22;19501;50.948;5.316;2023-08-24T09:32:23;26.60;99.90
33139;DHT22;19501;50.948;5.316;2023-08-24T09:34:50;26.70;99.90
33139;DHT22;19501;50.948;5.316;2023-08-24T09:37:15;26.60;99.90
33139;DHT22;19501;50.948;5.316;2023-08-24T09:39:42;26.50;99.90
33139;DHT22;19501;50.948;5.316;2023-08-24T09:42:08;26.00;99.90
33139;DHT22;19501;50.948;5.316;2023-08-24T09:44:33;26.20;99.90
33139;DHT22;19501;50.948;5.316;2023-08-24T09:46:59;26.30;99.90
33139;DHT22;19501;50.948;5.316;2023-08-24T09:49:25;26.40;99.90
33139;DHT22;19501;50.948;5.316;2023-08-24T09:51:56;26.20;99.90
33139;DHT22;19501;50.948;5.316;2023-08-24T09:54:26;26.00;99.90
33139;DHT22;19501;50.948;5.316;2023-08-24T09:56:55;25.80;99.90
33139;DHT22;19501;50.948;5.316;2023-08-24T09:59:24;25.70;99.90
33139;DHT22;19501;50.948;5.316;2023-08-24T10:01:53;25.90;99.90
33139;DHT22;19501;50.948;5.316;2023-08-24T10:04:24;25.90;99.90
33139;DHT22;19501;50.948;5.316;2023-08-24T10:06:56;25.70;99.90
33139;DHT22;19501;50.948;5.316;2023-08-24T10:09:34;25.70;99.90
33139;DHT22;19501;50.948;5.316;2023-08-24T10:12:04;25.90;99.90
33139;DHT22;19501;50.948;5.316;2023-08-24T10:14:31;25.90;99.90
33139;DHT22;19501;50.948;5.316;2023-08-24T10:16:58;25.90;99.90
33139;DHT22;19501;50.948;5.316;2023-08-24T10:19:24;25.70;99.90
33139;DHT22;19501;50.948;5.316;2023-08-24T10:21:52;25.50;99.90
33139;DHT22;19501;50.948;5.316;2023-08-24T10:24:19;25.30;99.90
33139;DHT22;19501;50.948;5.316;2023-08-24T10:26:46;25.10;99.90
33139;DHT22;19501;50.948;5.316;2023-08-24T10:29:13;25.10;99.90
33139;DHT22;19501;50.948;5.316;2023-08-24T10:31:41;24.80;99.90
33139;DHT22;19501;50.948;5.316;2023-08-24T10:34:07;24.30;99.90
33139;DHT22;19501;50.948;5.316;2023-08-24T10:36:34;24.00;99.90
33139;DHT22;19501;50.948;5.316;2023-08-24T10:39:03;23.80;99.90
33139;DHT22;19501;50.948;5.316;2023-08-24T10:41:51;23.60;99.90
33139;DHT22;19501;50.948;5.316;2023-08-24T10:44:37;23.50;99.90
33139;DHT22;19501;50.948;5.316;2023-08-24T10:49:43;23.20;99.90
33139;DHT22;19501;50.948;5.316;2023-08-24T10:52:26;23.00;99.90
33139;DHT22;19501;50.948;5.316;2023-08-24T10:54:56;22.70;99.90
33139;DHT22;19501;50.948;5.316;2023-08-24T10:57:26;22.50;99.90
33139;DHT22;19501;50.948;5.316;2023-08-24T11:02:25;22.20;99.90
33139;DHT22;19501;50.948;5.316;2023-08-24T11:05:20;22.10;99.90
33139;DHT22;19501;50.948;5.316;2023-08-24T11:10:23;21.50;99.90
33139;DHT22;19501;50.948;5.316;2023-08-24T11:15:34;21.40;99.90
33139;DHT22;19501;50.948;5.316;2023-08-24T11:23:21;21.70;99.90
33139;DHT22;19501;50.948;5.316;2023-08-24T11:25:49;21.80;99.90
33139;DHT22;19501;50.948;5.316;2023-08-24T11:28:18;22.10;99.90
33139;DHT22;19501;50.948;5.316;2023-08-24T11:30:45;22.40;99.90
33139;DHT22;19501;50.948;5.316;2023-08-24T11:33:11;22.40;99.90
33139;DHT22;19501;50.948;5.316;2023-08-24T11:35:44;22.60;99.90
33139;DHT22;19501;50.948;5.316;2023-08-24T11:38:11;22.70;99.90
33139;DHT22;19501;50.948;5.316;2023-08-24T11:40:38;22.90;99.90
33139;DHT22;19501;50.948;5.316;2023-08-24T11:43:04;23.00;99.90
33139;DHT22;19501;50.948;5.316;2023-08-24T11:45:32;23.00;99.90
33139;DHT22;19501;50.948;5.316;2023-08-24T11:47:59;23.20;99.90
33139;DHT22;19501;50.948;5.316;2023-08-24T11:50:26;23.40;99.90
33139;DHT22;19501;50.948;5.316;2023-08-24T11:52:53;23.50;99.90
33139;DHT22;19501;50.948;5.316;2023-08-24T11:55:19;23.60;99.90
33139;DHT22;19501;50.948;5.316;2023-08-24T11:57:46;23.80;99.90
33139;DHT22;19501;50.948;5.316;2023-08-24T12:00:12;23.90;99.90
33139;DHT22;19501;50.948;5.316;2023-08-24T12:02:40;24.00;99.90
33139;DHT22;19501;50.948;5.316;2023-08-24T12:05:07;24.30;99.90
33139;DHT22;19501;50.948;5.316;2023-08-24T12:07:33;24.50;99.90
33139;DHT22;19501;50.948;5.316;2023-08-24T12:10:02;24.70;99.90
33139;DHT22;19501;50.948;5.316;2023-08-24T12:12:28;24.60;99.90
33139;DHT22;19501;50.948;5.316;2023-08-24T12:14:55;24.60;99.90
33139;DHT22;19501;50.948;5.316;2023-08-24T12:17:23;24.40;99.90
33139;DHT22;19501;50.948;5.316;2023-08-24T12:19:59;24.50;99.90
33139;DHT22;19501;50.948;5.316;2023-08-24T12:22:34;24.50;99.90
33139;DHT22;19501;50.948;5.316;2023-08-24T12:25:00;24.20;99.90
33139;DHT22;19501;50.948;5.316;2023-08-24T12:27:27;23.90;99.90
33139;DHT22;19501;50.948;5.316;2023-08-24T12:29:52;23.90;99.90
33139;DHT22;19501;50.948;5.316;2023-08-24T12:32:19;23.80;99.90
33139;DHT22;19501;50.948;5.316;2023-08-24T12:34:49;23.70;99.90
33139;DHT22;19501;50.948;5.316;2023-08-24T12:37:17;23.50;99.90
33139;DHT22;19501;50.948;5.316;2023-08-24T12:39:43;23.30;99.90
33139;DHT22;19501;50.948;5.316;2023-08-24T12:42:08;23.20;99.90
33139;DHT22;19501;50.948;5.316;2023-08-24T12:44:34;23.20;99.90
33139;DHT22;19501;50.948;5.316;2023-08-24T12:47:02;23.10;99.90
33139;DHT22;19501;50.948;5.316;2023-08-24T12:49:29;23.00;99.90
33139;DHT22;19501;50.948;5.316;2023-08-24T12:51:56;23.10;99.90
33139;DHT22;19501;50.948;5.316;2023-08-24T12:54:22;22.90;99.90
33139;DHT22;19501;50.948;5.316;2023-08-24T12:56:50;22.80;99.90
33139;DHT22;19501;50.948;5.316;2023-08-24T12:59:15;22.70;99.90
33139;DHT22;19501;50.948;5.316;2023-08-24T13:01:41;22.60;99.90
33139;DHT22;19501;50.948;5.316;2023-08-24T13:04:07;22.40;99.90
33139;DHT22;19501;50.948;5.316;2023-08-24T13:06:34;22.40;99.90
33139;DHT22;19501;50.948;5.316;2023-08-24T13:09:02;22.30;99.90
33139;DHT22;19501;50.948;5.316;2023-08-24T13:11:28;22.10;99.90
33139;DHT22;19501;50.948;5.316;2023-08-24T13:13:54;21.90;99.90
33139;DHT22;19501;50.948;5.316;2023-08-24T13:16:20;21.90;99.90
33139;DHT22;19501;50.948;5.316;2023-08-24T13:18:47;21.70;99.90
33139;DHT22;19501;50.948;5.316;2023-08-24T13:21:13;21.70;99.90
33139;DHT22;19501;50.948;5.316;2023-08-24T13:23:39;21.60;99.90
33139;DHT22;19501;50.948;5.316;2023-08-24T13:26:04;21.60;99.90
33139;DHT22;19501;50.948;5.316;2023-08-24T13:28:30;21.50;99.90
33139;DHT22;19501;50.948;5.316;2023-08-24T13:30:55;21.50;99.90
33139;DHT22;19501;50.948;5.316;2023-08-24T13:33:21;21.40;99.90
33139;DHT22;19501;50.948;5.316;2023-08-24T13:35:47;21.40;99.90
33139;DHT22;19501;50.948;5.316;2023-08-24T13:38:13;21.30;99.90
33139;DHT22;19501;50.948;5.316;2023-08-24T13:40:38;21.30;99.90
33139;DHT22;19501;50.948;5.316;2023-08-24T13:43:04;21.20;99.90
33139;DHT22;19501;50.948;5.316;2023-08-24T13:45:30;21.20;99.90
33139;DHT22;19501;50.948;5.316;2023-08-24T13:47:57;21.10;99.90
33139;DHT22;19501;50.948;5.316;2023-08-24T13:50:25;21.00;99.90
33139;DHT22;19501;50.948;5.316;2023-08-24T13:52:50;21.00;99.90
33139;DHT22;19501;50.948;5.316;2023-08-24T13:55:16;20.80;99.90
33139;DHT22;19501;50.948;5.316;2023-08-24T13:57:42;20.70;99.90
33139;DHT22;19501;50.948;5.316;2023-08-24T14:00:08;20.60;99.90
33139;DHT22;19501;50.948;5.316;2023-08-24T14:02:34;20.60;99.90
33139;DHT22;19501;50.948;5.316;2023-08-24T14:05:00;20.50;99.90
33139;DHT22;19501;50.948;5.316;2023-08-24T14:07:25;20.50;99.90
33139;DHT22;19501;50.948;5.316;2023-08-24T14:09:51;20.40;99.90
33139;DHT22;19501;50.948;5.316;2023-08-24T14:12:17;20.40;99.90
33139;DHT22;19501;50.948;5.316;2023-08-24T14:14:43;20.30;99.90
33139;DHT22;19501;50.948;5.316;2023-08-24T14:17:08;20.30;99.90
33139;DHT22;19501;50.948;5.316;2023-08-24T14:19:34;20.20;99.90
33139;DHT22;19501;50.948;5.316;2023-08-24T14:22:00;20.30;99.90
33139;DHT22;19501;50.948;5.316;2023-08-24T14:24:25;20.10;99.90
33139;DHT22;19501;50.948;5.316;2023-08-24T14:26:51;20.10;99.90
33139;DHT22;19501;50.948;5.316;2023-08-24T14:29:17;20.10;99.90
33139;DHT22;19501;50.948;5.316;2023-08-24T14:31:42;20.10;99.90
33139;DHT22;19501;50.948;5.316;2023-08-24T14:34:08;20.00;99.90
33139;DHT22;19501;50.948;5.316;2023-08-24T14:36:34;20.10;99.90
33139;DHT22;19501;50.948;5.316;2023-08-24T14:38:59;20.00;99.90
33139;DHT22;19501;50.948;5.316;2023-08-24T14:41:25;20.10;99.90
33139;DHT22;19501;50.948;5.316;2023-08-24T14:43:51;20.10;99.90
33139;DHT22;19501;50.948;5.316;2023-08-24T14:46:16;20.10;99.90
33139;DHT22;19501;50.948;5.316;2023-08-24T14:48:42;20.10;99.90
33139;DHT22;19501;50.948;5.316;2023-08-24T14:51:08;20.20;99.90
33139;DHT22;19501;50.948;5.316;2023-08-24T14:53:33;20.20;99.90
33139;DHT22;19501;50.948;5.316;2023-08-24T14:55:59;20.20;99.90
33139;DHT22;19501;50.948;5.316;2023-08-24T14:58:26;20.30;99.90
33139;DHT22;19501;50.948;5.316;2023-08-24T15:00:53;20.30;99.90
33139;DHT22;19501;50.948;5.316;2023-08-24T15:03:19;20.30;99.90
33139;DHT22;19501;50.948;5.316;2023-08-24T15:06:05;20.30;99.90
33139;DHT22;19501;50.948;5.316;2023-08-24T15:08:33;20.30;99.90
33139;DHT22;19501;50.948;5.316;2023-08-24T15:11:00;20.30;99.90
33139;DHT22;19501;50.948;5.316;2023-08-24T15:13:28;20.30;99.90
33139;DHT22;19501;50.948;5.316;2023-08-24T15:15:55;20.40;99.90
33139;DHT22;19501;50.948;5.316;2023-08-24T15:18:22;20.40;99.90
33139;DHT22;19501;50.948;5.316;2023-08-24T15:20:48;20.60;99.90
33139;DHT22;19501;50.948;5.316;2023-08-24T15:23:25;20.50;99.90
33139;DHT22;19501;50.948;5.316;2023-08-24T15:25:55;20.60;99.90
33139;DHT22;19501;50.948;5.316;2023-08-24T15:28:21;20.60;99.90
33139;DHT22;19501;50.948;5.316;2023-08-24T15:30:47;20.60;99.90
33139;DHT22;19501;50.948;5.316;2023-08-24T15:33:12;20.80;99.90
33139;DHT22;19501;50.948;5.316;2023-08-24T15:35:41;20.90;99.90
33139;DHT22;19501;50.948;5.316;2023-08-24T15:38:10;21.10;99.90
33139;DHT22;19501;50.948;5.316;2023-08-24T15:40:37;21.20;99.90
33139;DHT22;19501;50.948;5.316;2023-08-24T15:43:04;21.40;99.90
33139;DHT22;19501;50.948;5.316;2023-08-24T15:45:30;21.50;99.90
33139;DHT22;19501;50.948;5.316;2023-08-24T15:48:00;21.60;99.90
33139;DHT22;19501;50.948;5.316;2023-08-24T15:50:26;21.70;99.90
33139;DHT22;19501;50.948;5.316;2023-08-24T15:52:52;21.70;99.90
33139;DHT22;19501;50.948;5.316;2023-08-24T15:55:30;21.90;99.90